Time;durP1;ratioP1;P1;durP2;ratioP2;P2;SDS_P1;SDS_P2;PMS_P1;PMS_P2;Temp;Humidity;BMP_temperature;BMP_pressure;BME280_temperature;BME280_humidity;BME280_pressure;Samples;Min_cycle;Max_cycle;Signal;HPM_P1;HPM_P2
2022/07/25 00:02:23;;;;;;;1999.90;999.90;;;24.40;99.90;;;;;;5009702;28;20170;-72
2022/07/25 00:04:49;;;;;;;1999.90;999.90;;;24.50;99.90;;;;;;5009348;28;20178;-72
2022/07/25 00:07:14;;;;;;;1999.90;999.90;;;24.40;99.90;;;;;;5008938;28;20213;-72
2022/07/25 00:09:40;;;;;;;1999.90;999.90;;;24.40;99.90;;;;;;5009324;28;20190;-72
2022/07/25 00:12:06;;;;;;;1999.90;999.90;;;24.30;99.90;;;;;;5010325;28;20188;-72
2022/07/25 00:14:32;;;;;;;1999.90;999.90;;;24.30;99.90;;;;;;5009868;28;20221;-72
2022/07/25 00:16:57;;;;;;;1999.90;999.90;;;24.20;99.90;;;;;;5009955;28;20170;-72
2022/07/25 00:19:23;;;;;;;1999.90;999.90;;;24.20;99.90;;;;;;5009904;28;20690;-72
2022/07/25 00:21:49;;;;;;;1999.90;999.90;;;24.20;99.90;;;;;;5009455;28;20196;-72
2022/07/25 00:24:14;;;;;;;1999.90;999.90;;;24.20;99.90;;;;;;5008655;28;20643;-73
2022/07/25 00:26:40;;;;;;;1999.90;999.90;;;24.20;99.90;;;;;;5008242;28;20476;-72
2022/07/25 00:29:05;;;;;;;1999.90;999.90;;;24.10;99.90;;;;;;5010178;28;20197;-73
2022/07/25 00:31:31;;;;;;;1999.90;999.90;;;24.10;99.90;;;;;;5009802;28;20682;-73
2022/07/25 00:33:57;;;;;;;1999.90;999.90;;;24.10;99.90;;;;;;5010331;28;20588;-73
2022/07/25 00:36:22;;;;;;;1999.90;999.90;;;24.10;99.90;;;;;;5009881;28;20173;-72
2022/07/25 00:38:48;;;;;;;1999.90;999.90;;;24.00;99.90;;;;;;5010351;28;20173;-73
2022/07/25 00:41:13;;;;;;;1999.90;999.90;;;23.90;99.90;;;;;;5011957;28;20177;-73
2022/07/25 00:43:44;;;;;;;1999.90;999.90;;;23.90;99.90;;;;;;5012533;28;20161;-72
2022/07/25 00:46:16;;;;;;;1999.90;999.90;;;23.90;99.90;;;;;;4995320;28;20188;-71
2022/07/25 00:48:42;;;;;;;1999.90;999.90;;;23.90;99.90;;;;;;4994968;28;20405;-72
2022/07/25 00:51:09;;;;;;;1999.90;999.90;;;24.00;99.90;;;;;;4995083;28;20390;-72
2022/07/25 00:53:36;;;;;;;1999.90;999.90;;;23.80;99.90;;;;;;4994914;28;20427;-72
2022/07/25 00:56:02;;;;;;;1999.90;999.90;;;23.70;99.90;;;;;;4995056;28;20406;-72
2022/07/25 00:58:28;;;;;;;1999.90;999.90;;;23.50;99.90;;;;;;4995330;28;21009;-72
2022/07/25 01:00:54;;;;;;;1999.90;999.90;;;23.50;99.90;;;;;;4994912;28;20425;-72
2022/07/25 01:03:20;;;;;;;1999.90;999.90;;;23.40;99.90;;;;;;4994896;28;20388;-72
2022/07/25 01:05:45;;;;;;;1999.90;999.90;;;23.40;99.90;;;;;;4994970;28;20174;-72
2022/07/25 01:08:12;;;;;;;1999.90;999.90;;;23.50;99.90;;;;;;4994459;28;20173;-72
2022/07/25 01:10:38;;;;;;;1999.90;999.90;;;23.50;99.90;;;;;;4994489;28;20226;-72
2022/07/25 01:13:04;;;;;;;1999.90;999.90;;;23.40;99.90;;;;;;4994802;28;20451;-72
2022/07/25 01:15:30;;;;;;;1999.90;999.90;;;23.60;99.90;;;;;;4994684;28;20401;-72
2022/07/25 01:17:56;;;;;;;1999.90;999.90;;;23.50;99.90;;;;;;4994192;28;20914;-72
2022/07/25 01:20:26;;;;;;;1999.90;999.90;;;23.50;99.90;;;;;;4994621;28;20455;-72
2022/07/25 01:22:52;;;;;;;1999.90;999.90;;;23.50;99.90;;;;;;4994611;28;20173;-72
2022/07/25 01:25:19;;;;;;;1999.90;999.90;;;23.50;99.90;;;;;;4994345;28;20384;-72
2022/07/25 01:27:46;;;;;;;1999.90;999.90;;;23.40;99.90;;;;;;4993924;28;20918;-72
2022/07/25 01:30:14;;;;;;;1999.90;999.90;;;23.30;99.90;;;;;;4994141;28;20487;-72
2022/07/25 01:32:40;;;;;;;1999.90;999.90;;;23.30;99.90;;;;;;4994048;28;20445;-72
2022/07/25 01:35:07;;;;;;;1999.90;999.90;;;23.10;99.90;;;;;;4994087;28;20405;-72
2022/07/25 01:37:33;;;;;;;1999.90;999.90;;;23.10;99.90;;;;;;5007101;28;20439;-73
2022/07/25 01:39:58;;;;;;;1999.90;999.90;;;23.20;99.90;;;;;;5008873;28;20404;-72
2022/07/25 01:42:24;;;;;;;1999.90;999.90;;;23.20;99.90;;;;;;5009430;28;20188;-72
2022/07/25 01:44:50;;;;;;;1999.90;999.90;;;23.10;99.90;;;;;;5009010;28;20196;-72
2022/07/25 01:47:18;;;;;;;1999.90;999.90;;;23.20;99.90;;;;;;5009202;28;20165;-72
2022/07/25 01:49:44;;;;;;;1999.90;999.90;;;23.20;99.90;;;;;;5009803;28;20189;-73
2022/07/25 01:52:10;;;;;;;1999.90;999.90;;;23.10;99.90;;;;;;5009850;28;20413;-72
2022/07/25 01:54:36;;;;;;;1999.90;999.90;;;23.00;99.90;;;;;;5008905;28;20257;-73
2022/07/25 01:57:01;;;;;;;1999.90;999.90;;;23.00;99.90;;;;;;5008428;28;20409;-72
2022/07/25 01:59:27;;;;;;;1999.90;999.90;;;23.00;99.90;;;;;;5010786;28;20193;-72
2022/07/25 02:01:53;;;;;;;1999.90;999.90;;;22.80;99.90;;;;;;5012205;28;20315;-72
2022/07/25 02:04:18;;;;;;;1999.90;999.90;;;22.70;99.90;;;;;;5011693;28;20176;-72
2022/07/25 02:06:44;;;;;;;1999.90;999.90;;;22.70;99.90;;;;;;5007325;28;20185;-73
2022/07/25 02:09:09;;;;;;;1999.90;999.90;;;22.70;99.90;;;;;;5006935;28;20200;-73
2022/07/25 02:11:35;;;;;;;1999.90;999.90;;;22.60;99.90;;;;;;5008103;28;20173;-73
2022/07/25 02:14:02;;;;;;;1999.90;999.90;;;22.50;99.90;;;;;;5007013;28;20197;-72
2022/07/25 02:16:28;;;;;;;1999.90;999.90;;;22.50;99.90;;;;;;5005472;28;20416;-72
2022/07/25 02:18:53;;;;;;;1999.90;999.90;;;22.50;99.90;;;;;;5005465;28;20423;-72
2022/07/25 02:21:19;;;;;;;1999.90;999.90;;;22.50;99.90;;;;;;5002365;28;20174;-72
2022/07/25 02:23:44;;;;;;;1999.90;999.90;;;22.50;99.90;;;;;;4993204;28;20180;-71
2022/07/25 02:26:11;;;;;;;1999.90;999.90;;;22.40;99.90;;;;;;4992799;28;20173;-71
2022/07/25 02:28:37;;;;;;;1999.90;999.90;;;22.30;99.90;;;;;;4993135;28;20173;-71
2022/07/25 02:31:03;;;;;;;1999.90;999.90;;;22.30;99.90;;;;;;4992895;28;20438;-71
2022/07/25 02:33:29;;;;;;;1999.90;999.90;;;22.40;99.90;;;;;;4992947;28;20423;-71
2022/07/25 02:35:55;;;;;;;1999.90;999.90;;;22.40;99.90;;;;;;4992739;28;20991;-71
2022/07/25 02:38:21;;;;;;;1999.90;999.90;;;22.40;99.90;;;;;;4992843;28;20468;-71
2022/07/25 02:40:50;;;;;;;1999.90;999.90;;;22.30;99.90;;;;;;4992825;28;20667;-71
2022/07/25 02:43:16;;;;;;;1999.90;999.90;;;22.40;99.90;;;;;;4992855;28;20185;-71
2022/07/25 02:45:42;;;;;;;1999.90;999.90;;;22.30;99.90;;;;;;4992839;28;20398;-71
2022/07/25 02:48:08;;;;;;;1999.90;999.90;;;22.30;99.90;;;;;;4992531;28;20860;-71
2022/07/25 02:50:34;;;;;;;1999.90;999.90;;;22.20;99.90;;;;;;4991940;28;20207;-71
2022/07/25 02:52:59;;;;;;;1999.90;999.90;;;22.20;99.90;;;;;;4992672;28;20456;-71
2022/07/25 02:55:25;;;;;;;1999.90;999.90;;;22.20;99.90;;;;;;4992720;28;20169;-71
2022/07/25 02:57:51;;;;;;;1999.90;999.90;;;22.20;99.90;;;;;;4992454;28;20180;-71
2022/07/25 03:00:17;;;;;;;1999.90;999.90;;;22.10;99.90;;;;;;4992619;28;20666;-73
2022/07/25 03:02:42;;;;;;;1999.90;999.90;;;22.10;99.90;;;;;;4992714;28;20267;-73
2022/07/25 03:05:10;;;;;;;1999.90;999.90;;;22.10;99.90;;;;;;4992581;28;20430;-73
2022/07/25 03:07:36;;;;;;;1999.90;999.90;;;22.00;99.90;;;;;;4992403;28;20181;-73
2022/07/25 03:10:05;;;;;;;1999.90;999.90;;;22.00;99.90;;;;;;4992559;28;20914;-73
2022/07/25 03:12:34;;;;;;;1999.90;999.90;;;22.00;99.90;;;;;;4992474;28;20413;-73
2022/07/25 03:15:00;;;;;;;1999.90;999.90;;;22.00;99.90;;;;;;4992729;28;20474;-73
2022/07/25 03:17:27;;;;;;;1999.90;999.90;;;22.00;99.90;;;;;;4992265;28;20463;-73
2022/07/25 03:19:54;;;;;;;1999.90;999.90;;;22.00;99.90;;;;;;4992359;28;20866;-73
2022/07/25 03:22:20;;;;;;;1999.90;999.90;;;22.00;99.90;;;;;;4992455;28;20391;-73
2022/07/25 03:24:45;;;;;;;1999.90;999.90;;;22.00;99.90;;;;;;4992526;28;20470;-73
2022/07/25 03:27:11;;;;;;;1999.90;999.90;;;21.90;99.90;;;;;;4992152;28;20499;-73
2022/07/25 03:29:36;;;;;;;1999.90;999.90;;;21.90;99.90;;;;;;4992392;28;20204;-73
2022/07/25 03:32:03;;;;;;;1999.90;999.90;;;21.90;99.90;;;;;;4992480;28;20200;-73
2022/07/25 03:34:28;;;;;;;1999.90;999.90;;;22.00;99.90;;;;;;4992337;28;20201;-73
2022/07/25 03:36:54;;;;;;;1999.90;999.90;;;22.00;99.90;;;;;;4992094;28;20814;-73
2022/07/25 03:39:20;;;;;;;1999.90;999.90;;;22.00;99.90;;;;;;4992286;28;20189;-72
2022/07/25 03:41:46;;;;;;;1999.90;999.90;;;21.90;99.90;;;;;;4992325;28;20166;-73
2022/07/25 03:44:12;;;;;;;1999.90;999.90;;;21.90;99.90;;;;;;4992337;28;20350;-73
2022/07/25 03:46:38;;;;;;;1999.90;999.90;;;21.80;99.90;;;;;;4991989;28;20408;-73
2022/07/25 03:49:04;;;;;;;1999.90;999.90;;;21.80;99.90;;;;;;4992148;28;20435;-73
2022/07/25 03:51:29;;;;;;;1999.90;999.90;;;21.80;99.90;;;;;;4992291;28;20635;-73
2022/07/25 03:54:01;;;;;;;1999.90;999.90;;;21.80;99.90;;;;;;4992146;28;20984;-73
2022/07/25 03:56:32;;;;;;;1999.90;999.90;;;21.80;99.90;;;;;;4991996;28;20657;-73
2022/07/25 03:58:58;;;;;;;1999.90;999.90;;;21.80;99.90;;;;;;4992145;28;20429;-73
2022/07/25 04:01:23;;;;;;;1999.90;999.90;;;21.80;99.90;;;;;;5004855;28;20412;-73
2022/07/25 04:03:49;;;;;;;1999.90;999.90;;;21.80;99.90;;;;;;5008330;28;20394;-72
2022/07/25 04:06:15;;;;;;;1999.90;999.90;;;21.90;99.90;;;;;;5007515;28;20184;-73
2022/07/25 04:08:41;;;;;;;1999.90;999.90;;;21.90;99.90;;;;;;5007254;28;20188;-73
2022/07/25 04:11:06;;;;;;;1999.90;999.90;;;22.00;99.90;;;;;;5007637;28;20182;-73
2022/07/25 04:13:32;;;;;;;1999.90;999.90;;;22.00;99.90;;;;;;5006500;28;20201;-73
2022/07/25 04:15:57;;;;;;;1999.90;999.90;;;22.00;99.90;;;;;;5006048;28;20177;-72
2022/07/25 04:18:23;;;;;;;1999.90;999.90;;;22.00;99.90;;;;;;5004381;28;20181;-72
2022/07/25 04:20:49;;;;;;;1999.90;999.90;;;22.00;99.90;;;;;;5007006;28;20217;-72
2022/07/25 04:23:15;;;;;;;1999.90;999.90;;;22.00;99.90;;;;;;5009433;28;20414;-72
2022/07/25 04:25:41;;;;;;;1999.90;999.90;;;22.00;99.90;;;;;;5010452;28;20208;-73
2022/07/25 04:28:06;;;;;;;1999.90;999.90;;;22.00;99.90;;;;;;5010315;28;20264;-72
2022/07/25 04:30:32;;;;;;;1999.90;999.90;;;22.10;99.90;;;;;;5009834;28;20208;-73
2022/07/25 04:32:57;;;;;;;1999.90;999.90;;;22.10;99.90;;;;;;5009322;28;20201;-73
2022/07/25 04:35:23;;;;;;;1999.90;999.90;;;22.10;99.90;;;;;;5008527;28;20180;-72
2022/07/25 04:37:49;;;;;;;1999.90;999.90;;;22.10;99.90;;;;;;5008721;28;20630;-72
2022/07/25 04:40:15;;;;;;;1999.90;999.90;;;22.10;99.90;;;;;;5008227;28;20204;-72
2022/07/25 04:42:41;;;;;;;1999.90;999.90;;;22.20;99.90;;;;;;5008143;28;20173;-73
2022/07/25 04:45:07;;;;;;;1999.90;999.90;;;22.20;99.90;;;;;;5009325;28;20434;-71
2022/07/25 04:47:33;;;;;;;1999.90;999.90;;;22.20;99.90;;;;;;5008192;28;20181;-72
2022/07/25 04:49:59;;;;;;;1999.90;999.90;;;22.30;99.90;;;;;;5008979;28;20416;-73
2022/07/25 04:52:25;;;;;;;1999.90;999.90;;;22.40;99.90;;;;;;5008567;28;20260;-72
2022/07/25 04:54:51;;;;;;;1999.90;999.90;;;22.50;99.90;;;;;;5008325;28;20463;-72
2022/07/25 04:57:17;;;;;;;1999.90;999.90;;;22.50;99.90;;;;;;5008176;28;20166;-72
2022/07/25 04:59:43;;;;;;;1999.90;999.90;;;22.60;99.90;;;;;;5007527;28;20189;-72
2022/07/25 05:02:08;;;;;;;1999.90;999.90;;;22.70;99.90;;;;;;5005570;28;20615;-72
2022/07/25 05:04:34;;;;;;;1999.90;999.90;;;22.70;99.90;;;;;;5006286;28;20428;-72
2022/07/25 05:07:00;;;;;;;1999.90;999.90;;;22.50;99.90;;;;;;5008588;28;20181;-72
2022/07/25 05:09:26;;;;;;;1999.90;999.90;;;22.60;99.90;;;;;;5008036;28;20228;-72
2022/07/25 05:11:52;;;;;;;1999.90;999.90;;;22.60;99.90;;;;;;5006835;28;20651;-72
2022/07/25 05:14:18;;;;;;;1999.90;999.90;;;22.60;99.90;;;;;;5004425;28;20446;-73
2022/07/25 05:16:43;;;;;;;1999.90;999.90;;;22.60;99.90;;;;;;5007546;28;20181;-73
2022/07/25 05:21:38;;;;;;;1999.90;999.90;;;22.70;99.90;;;;;;5011186;28;20648;-67
2022/07/25 05:24:04;;;;;;;1999.90;999.90;;;22.70;99.90;;;;;;5013928;28;20411;-67
2022/07/25 05:26:30;;;;;;;1999.90;999.90;;;22.70;99.90;;;;;;5013588;28;20200;-67
2022/07/25 05:28:56;;;;;;;1999.90;999.90;;;22.80;99.90;;;;;;5023866;28;20404;-66
2022/07/25 05:31:23;;;;;;;1999.90;999.90;;;22.80;99.90;;;;;;5014528;28;20219;-67
2022/07/25 05:33:48;;;;;;;1999.90;999.90;;;22.90;99.90;;;;;;5013652;28;20854;-67
2022/07/25 05:36:14;;;;;;;1999.90;999.90;;;23.00;99.90;;;;;;5013402;28;20665;-67
2022/07/25 05:38:39;;;;;;;1999.90;999.90;;;23.10;99.90;;;;;;5013649;28;20243;-67
2022/07/25 05:41:05;;;;;;;1999.90;999.90;;;23.20;99.90;;;;;;5013540;28;20267;-66
2022/07/25 05:43:31;;;;;;;1999.90;999.90;;;23.30;99.90;;;;;;5013602;28;20196;-66
2022/07/25 05:46:01;;;;;;;1999.90;999.90;;;23.30;99.90;;;;;;5013192;28;20653;-67
2022/07/25 05:48:26;;;;;;;1999.90;999.90;;;23.40;99.90;;;;;;5013459;28;20173;-67
2022/07/25 05:50:52;;;;;;;1999.90;999.90;;;23.60;99.90;;;;;;5013563;28;20439;-67
2022/07/25 05:53:18;;;;;;;1999.90;999.90;;;23.70;99.90;;;;;;5013278;28;20700;-66
2022/07/25 05:55:43;;;;;;;1999.90;999.90;;;23.90;99.90;;;;;;5013270;28;20542;-66
2022/07/25 05:58:09;;;;;;;1999.90;999.90;;;24.10;99.90;;;;;;5013039;28;20173;-66
2022/07/25 06:00:35;;;;;;;1999.90;999.90;;;24.20;99.90;;;;;;5013018;28;20193;-66
2022/07/25 06:03:01;;;;;;;1999.90;999.90;;;24.40;99.90;;;;;;5013418;28;20169;-66
2022/07/25 06:05:27;;;;;;;1999.90;999.90;;;24.50;99.90;;;;;;5013119;28;20891;-66
2022/07/25 06:07:52;;;;;;;1999.90;999.90;;;24.60;99.90;;;;;;5012835;28;20256;-67
2022/07/25 06:10:18;;;;;;;1999.90;999.90;;;24.80;99.90;;;;;;5012966;28;20216;-66
2022/07/25 06:12:44;;;;;;;1999.90;999.90;;;25.00;99.90;;;;;;5012907;28;20666;-67
2022/07/25 06:15:10;;;;;;;1999.90;999.90;;;25.20;99.90;;;;;;5013092;28;20432;-67
2022/07/25 06:17:35;;;;;;;1999.90;999.90;;;25.40;99.90;;;;;;5012870;28;20173;-67
2022/07/25 06:20:01;;;;;;;1999.90;999.90;;;25.50;99.90;;;;;;5012715;28;20212;-67
2022/07/25 06:22:29;;;;;;;1999.90;999.90;;;25.60;99.90;;;;;;5012868;28;20224;-66
2022/07/25 06:24:55;;;;;;;1999.90;999.90;;;25.60;99.90;;;;;;5013041;28;20176;-68
2022/07/25 06:27:20;;;;;;;1999.90;999.90;;;25.70;99.90;;;;;;5012937;28;20383;-68
2022/07/25 06:29:46;;;;;;;1999.90;999.90;;;25.80;99.90;;;;;;5013059;28;20303;-68
2022/07/25 06:32:13;;;;;;;1999.90;999.90;;;25.90;99.90;;;;;;5025881;28;20243;-66
2022/07/25 06:34:41;;;;;;;1999.90;999.90;;;25.90;99.90;;;;;;5031956;28;20208;-68
2022/07/25 06:37:07;;;;;;;1999.90;999.90;;;26.00;99.90;;;;;;5031553;28;20412;-68
2022/07/25 06:39:34;;;;;;;1999.90;999.90;;;26.10;99.90;;;;;;5022693;28;20413;-68
2022/07/25 06:42:02;;;;;;;1999.90;999.90;;;26.10;99.90;;;;;;5030998;28;20198;-67
2022/07/25 06:44:31;;;;;;;1999.90;999.90;;;26.20;99.90;;;;;;5012831;28;20440;-68
2022/07/25 06:46:56;;;;;;;1999.90;999.90;;;26.20;99.90;;;;;;5012035;28;20909;-67
2022/07/25 06:49:22;;;;;;;1999.90;999.90;;;26.30;99.90;;;;;;5012533;28;20422;-67
2022/07/25 06:51:47;;;;;;;1999.90;999.90;;;26.40;99.90;;;;;;5012421;28;20630;-66
2022/07/25 06:54:14;;;;;;;1999.90;999.90;;;26.50;99.90;;;;;;5019036;28;20267;-67
2022/07/25 06:56:40;;;;;;;1999.90;999.90;;;26.60;99.90;;;;;;5014785;28;20204;-67
2022/07/25 06:59:05;;;;;;;1999.90;999.90;;;26.50;99.90;;;;;;5020952;28;20420;-67
2022/07/25 07:01:31;;;;;;;1999.90;999.90;;;26.70;99.90;;;;;;5012208;28;20207;-67
2022/07/25 07:03:57;;;;;;;1999.90;999.90;;;26.80;99.90;;;;;;5012436;28;20177;-66
2022/07/25 07:06:22;;;;;;;1999.90;999.90;;;26.90;99.90;;;;;;5012002;28;20643;-67
2022/07/25 07:08:48;;;;;;;1999.90;999.90;;;27.00;99.90;;;;;;5012233;28;20219;-67
2022/07/25 07:11:15;;;;;;;1999.90;999.90;;;27.10;99.90;;;;;;5012502;28;20193;-68
2022/07/25 07:13:41;;;;;;;1999.90;999.90;;;27.20;99.90;;;;;;5024551;28;20229;-67
2022/07/25 07:16:07;;;;;;;1999.90;999.90;;;27.40;99.90;;;;;;5019803;28;20415;-67
2022/07/25 07:18:32;;;;;;;1999.90;999.90;;;27.50;99.90;;;;;;5012484;28;20419;-66
2022/07/25 07:20:58;;;;;;;1999.90;999.90;;;27.60;99.90;;;;;;5012012;28;20226;-67
2022/07/25 07:23:24;;;;;;;1999.90;999.90;;;27.70;99.90;;;;;;5012025;28;20207;-67
2022/07/25 07:25:49;;;;;;;1999.90;999.90;;;27.80;99.90;;;;;;5011942;28;20177;-67
2022/07/25 07:28:15;;;;;;;1999.90;999.90;;;27.90;99.90;;;;;;5011784;28;20176;-66
2022/07/25 07:30:41;;;;;;;1999.90;999.90;;;28.00;99.90;;;;;;5031085;28;20221;-66
2022/07/25 07:33:07;;;;;;;1999.90;999.90;;;28.10;99.90;;;;;;5031006;28;20451;-66
2022/07/25 07:35:33;;;;;;;1999.90;999.90;;;28.40;99.90;;;;;;5018146;28;20460;-67
2022/07/25 07:37:59;;;;;;;1999.90;999.90;;;28.50;99.90;;;;;;5016617;28;20167;-66
2022/07/25 07:40:25;;;;;;;1999.90;999.90;;;28.60;99.90;;;;;;5021849;28;20197;-67
2022/07/25 07:42:51;;;;;;;1999.90;999.90;;;28.60;99.90;;;;;;5016827;28;20173;-66
2022/07/25 07:45:23;;;;;;;1999.90;999.90;;;28.80;99.90;;;;;;5033609;28;20420;-67
2022/07/25 07:47:50;;;;;;;1999.90;999.90;;;28.80;99.90;;;;;;5015435;28;20408;-67
2022/07/25 07:50:19;;;;;;;1999.90;999.90;;;28.90;99.90;;;;;;5015607;28;20602;-67
2022/07/25 07:52:45;;;;;;;1999.90;999.90;;;28.90;99.90;;;;;;5015485;28;20466;-67
2022/07/25 07:57:58;;;;;;;1999.90;999.90;;;28.70;99.90;;;;;;5015684;28;20227;-68
2022/07/25 08:00:26;;;;;;;1999.90;999.90;;;28.60;99.90;;;;;;5015465;28;20423;-66
2022/07/25 08:02:54;;;;;;;1999.90;999.90;;;28.50;99.90;;;;;;5015408;28;20415;-66
2022/07/25 08:05:27;;;;;;;1999.90;999.90;;;28.50;99.90;;;;;;5015394;28;20411;-66
2022/07/25 08:07:54;;;;;;;1999.90;999.90;;;28.40;99.90;;;;;;5016538;28;20429;-66
2022/07/25 08:10:25;;;;;;;1999.90;999.90;;;28.30;99.90;;;;;;5030251;28;20448;-67
2022/07/25 08:12:51;;;;;;;1999.90;999.90;;;28.00;99.80;;;;;;5030380;28;20457;-66
2022/07/25 08:15:18;;;;;;;1999.90;999.90;;;28.00;99.90;;;;;;5030769;28;20412;-67
2022/07/25 08:17:44;;;;;;;1999.90;999.90;;;28.10;99.90;;;;;;5031313;28;20179;-66
2022/07/25 08:20:10;;;;;;;1999.90;999.90;;;28.00;99.90;;;;;;5028798;28;20457;-67
2022/07/25 08:22:41;;;;;;;1999.90;999.90;;;27.90;99.90;;;;;;5028045;28;20428;-67
2022/07/25 08:25:08;;;;;;;1999.90;999.90;;;27.70;99.70;;;;;;5025489;28;20442;-68
2022/07/25 08:27:35;;;;;;;1999.90;999.90;;;27.60;99.90;;;;;;5027277;28;20434;-67
2022/07/25 08:30:03;;;;;;;1999.90;999.90;;;27.60;99.90;;;;;;5018117;28;20423;-67
2022/07/25 08:32:29;;;;;;;1999.90;999.90;;;27.50;99.90;;;;;;5013598;28;20954;-67
2022/07/25 08:34:56;;;;;;;1999.90;999.90;;;27.40;99.90;;;;;;5013676;28;20483;-67
2022/07/25 08:37:22;;;;;;;1999.90;999.90;;;27.40;99.90;;;;;;5013385;28;20178;-67
2022/07/25 08:39:48;;;;;;;1999.90;999.90;;;27.30;99.90;;;;;;5013545;28;20428;-67
2022/07/25 08:42:15;;;;;;;1999.90;999.90;;;27.10;99.90;;;;;;5013466;28;20404;-67
2022/07/25 08:44:45;;;;;;;1999.90;999.90;;;27.10;99.90;;;;;;5013535;28;20420;-67
2022/07/25 08:47:14;;;;;;;1999.90;999.90;;;27.00;99.90;;;;;;5012532;28;20495;-67
2022/07/25 08:49:40;;;;;;;1999.90;999.90;;;26.90;99.90;;;;;;5012847;28;20428;-66
2022/07/25 08:52:08;;;;;;;1999.90;999.90;;;27.00;99.90;;;;;;5013478;28;20412;-67
2022/07/25 08:54:34;;;;;;;1999.90;999.90;;;27.10;99.90;;;;;;5013242;28;20952;-67
2022/07/25 08:57:00;;;;;;;1999.90;999.90;;;27.10;99.90;;;;;;5013500;28;20407;-67
2022/07/25 08:59:25;;;;;;;1999.90;999.90;;;27.40;99.90;;;;;;5018982;28;20426;-66
2022/07/25 09:01:51;;;;;;;1999.90;999.90;;;27.50;99.90;;;;;;5026906;28;20173;-67
2022/07/25 09:04:17;;;;;;;1999.90;999.90;;;27.50;99.90;;;;;;5027420;28;20177;-67
2022/07/25 09:06:50;;;;;;;1999.90;999.90;;;27.90;99.90;;;;;;5028079;28;20181;-66
2022/07/25 09:09:15;;;;;;;1999.90;999.90;;;28.10;99.90;;;;;;5026649;28;20224;-66
2022/07/25 09:11:41;;;;;;;1999.90;999.90;;;28.20;98.80;;;;;;5013088;28;20893;-66
2022/07/25 09:14:09;;;;;;;1999.90;999.90;;;28.30;99.00;;;;;;5013011;28;20200;-67
2022/07/25 09:16:39;;;;;;;1999.90;999.90;;;28.30;99.70;;;;;;5012742;28;20165;-67
2022/07/25 09:22:06;;;;;;;1999.90;999.90;;;28.50;99.50;;;;;;5069346;28;20590;-66
2022/07/25 09:24:33;;;;;;;1999.90;999.90;;;28.50;99.90;;;;;;5069250;28;20390;-66
2022/07/25 09:27:07;;;;;;;1999.90;999.90;;;28.50;99.10;;;;;;5073657;28;20470;-67
2022/07/25 09:29:33;;;;;;;1999.90;999.90;;;28.30;97.90;;;;;;5085148;28;20978;-66
2022/07/25 09:32:00;;;;;;;1999.90;999.90;;;28.20;98.10;;;;;;5078754;28;20397;-66
2022/07/25 09:34:35;;;;;;;1999.90;999.90;;;28.10;98.60;;;;;;5069219;28;20475;-65
2022/07/25 09:37:06;;;;;;;1999.90;999.90;;;28.00;99.90;;;;;;5068809;28;20902;-65
2022/07/25 09:39:42;;;;;;;1999.90;999.90;;;27.90;99.90;;;;;;5068774;28;20417;-65
2022/07/25 09:42:18;;;;;;;1999.90;999.90;;;27.60;99.90;;;;;;5068983;28;20393;-65
2022/07/25 09:44:55;;;;;;;1999.90;999.90;;;27.30;99.90;;;;;;5068958;28;20404;-66
2022/07/25 09:47:21;;;;;;;1999.90;999.90;;;27.00;99.90;;;;;;5068716;28;20397;-66
2022/07/25 09:49:46;;;;;;;1999.90;999.90;;;26.60;99.90;;;;;;5068698;28;20471;-66
2022/07/25 09:52:12;;;;;;;1999.90;999.90;;;26.50;99.90;;;;;;5068969;28;20589;-66
2022/07/25 09:54:39;;;;;;;1999.90;999.90;;;26.40;99.90;;;;;;5068675;28;20170;-66
2022/07/25 09:57:05;;;;;;;1999.90;999.90;;;26.20;99.90;;;;;;5066594;28;20210;-65
2022/07/25 09:59:33;;;;;;;1999.90;999.90;;;26.00;99.90;;;;;;5068151;28;20516;-65
2022/07/25 10:02:36;;;;;;;1999.90;999.90;;;25.90;99.90;;;;;;5068173;28;20500;-65
2022/07/25 10:05:38;;;;;;;1999.90;999.90;;;25.90;99.90;;;;;;5068715;28;20393;-65
2022/07/25 10:08:06;;;;;;;1999.90;999.90;;;25.70;99.90;;;;;;5069077;28;20906;-68
2022/07/25 10:10:37;;;;;;;1999.90;999.90;;;25.60;99.90;;;;;;5068132;28;20472;-66
2022/07/25 10:13:10;;;;;;;1999.90;999.90;;;25.50;99.90;;;;;;5068748;28;20376;-67
2022/07/25 10:15:53;;;;;;;1999.90;999.90;;;25.40;99.90;;;;;;5068766;28;20501;-66
2022/07/25 10:18:27;;;;;;;1999.90;999.90;;;25.20;99.90;;;;;;5075584;28;20415;-68
2022/07/25 10:21:06;;;;;;;1999.90;999.90;;;25.00;99.90;;;;;;5071437;28;20969;-67
2022/07/25 10:23:32;;;;;;;1999.90;999.90;;;25.00;99.90;;;;;;5070830;28;20411;-68
2022/07/25 10:26:09;;;;;;;1999.90;999.90;;;25.00;99.90;;;;;;5069453;28;20410;-66
2022/07/25 10:28:46;;;;;;;1999.90;999.90;;;25.00;99.90;;;;;;5079730;28;20162;-65
2022/07/25 10:31:17;;;;;;;1999.90;999.90;;;25.00;99.90;;;;;;5072740;28;20422;-66
2022/07/25 10:33:47;;;;;;;1999.90;999.90;;;25.20;99.90;;;;;;5055000;28;20402;-66
2022/07/25 10:36:13;;;;;;;1999.90;999.90;;;25.50;99.90;;;;;;5053553;28;20406;-65
2022/07/25 10:38:41;;;;;;;1999.90;999.90;;;25.70;99.90;;;;;;5053710;28;20489;-65
2022/07/25 10:41:10;;;;;;;1999.90;999.90;;;25.90;99.90;;;;;;5054000;28;20681;-66
2022/07/25 10:43:38;;;;;;;1999.90;999.90;;;26.10;99.90;;;;;;5054126;28;20398;-66
2022/07/25 10:46:12;;;;;;;1999.90;999.90;;;26.30;99.90;;;;;;5053496;28;20410;-66
2022/07/25 10:48:38;;;;;;;1999.90;999.90;;;26.60;99.90;;;;;;5054489;28;20402;-66
2022/07/25 10:51:10;;;;;;;1999.90;999.90;;;26.70;99.90;;;;;;5053926;28;20426;-66
2022/07/25 10:53:43;;;;;;;1999.90;999.90;;;26.70;99.90;;;;;;5053948;28;20532;-66
2022/07/25 10:56:23;;;;;;;1999.90;999.90;;;26.80;99.90;;;;;;5053714;28;20877;-66
2022/07/25 10:58:54;;;;;;;1999.90;999.90;;;27.00;99.90;;;;;;5053389;28;20513;-66
2022/07/25 11:01:25;;;;;;;1999.90;999.90;;;27.10;99.90;;;;;;5053762;28;20462;-66
2022/07/25 11:03:52;;;;;;;1999.90;999.90;;;27.30;99.90;;;;;;5053771;28;20880;-66
2022/07/25 11:06:33;;;;;;;1999.90;999.90;;;27.40;99.70;;;;;;5052854;28;20410;-66
2022/07/25 11:09:00;;;;;;;1999.90;999.90;;;27.60;98.00;;;;;;5053358;28;20419;-66
2022/07/25 11:11:37;;;;;;;1999.90;999.90;;;27.70;96.60;;;;;;5053533;28;20461;-66
2022/07/25 11:14:04;;;;;;;1999.90;999.90;;;27.70;94.40;;;;;;5053050;28;20409;-66
2022/07/25 11:16:30;;;;;;;1999.90;999.90;;;27.80;91.90;;;;;;5053166;28;20779;-66
2022/07/25 11:18:56;;;;;;;1999.90;999.90;;;27.90;90.90;;;;;;5053390;28;20417;-66
2022/07/25 11:21:21;;;;;;;1999.90;999.90;;;28.00;90.50;;;;;;5053038;28;20296;-65
2022/07/25 11:23:51;;;;;;;1999.90;999.90;;;28.00;88.70;;;;;;5053004;28;20167;-64
2022/07/25 11:26:17;;;;;;;1999.90;999.90;;;28.00;89.90;;;;;;5052918;28;20189;-65
2022/07/25 11:28:48;;;;;;;1999.90;999.90;;;28.10;89.10;;;;;;5052780;28;20398;-65
2022/07/25 11:31:16;;;;;;;1999.90;999.90;;;27.90;87.70;;;;;;5052822;28;20428;-65
2022/07/25 11:33:45;;;;;;;1999.90;999.90;;;28.00;87.30;;;;;;5053010;28;20448;-65
2022/07/25 11:36:11;;;;;;;1999.90;999.90;;;28.00;86.90;;;;;;5052142;28;20406;-65
2022/07/25 11:38:38;;;;;;;1999.90;999.90;;;28.20;83.40;;;;;;5052737;28;20478;-65
2022/07/25 11:41:05;;;;;;;1999.90;999.90;;;28.30;82.50;;;;;;5052784;28;20523;-66
2022/07/25 11:43:31;;;;;;;1999.90;999.90;;;28.60;82.10;;;;;;5051315;28;20738;-66
2022/07/25 11:46:00;;;;;;;1999.90;999.90;;;28.70;79.60;;;;;;5052529;28;20397;-66
2022/07/25 11:48:32;;;;;;;1999.90;999.90;;;28.70;80.80;;;;;;5052660;28;20784;-66
2022/07/25 11:51:08;;;;;;;1999.90;999.90;;;28.90;79.60;;;;;;5052454;28;20954;-66
2022/07/25 11:53:39;;;;;;;1999.90;999.90;;;29.00;80.60;;;;;;5052562;28;20783;-66
2022/07/25 11:56:22;;;;;;;1999.90;999.90;;;29.00;79.20;;;;;;5052387;28;20463;-66
2022/07/25 11:58:58;;;;;;;1999.90;999.90;;;28.90;80.30;;;;;;5051997;28;20907;-66
2022/07/25 12:01:25;;;;;;;1999.90;999.90;;;29.00;81.60;;;;;;5052342;28;20457;-66
2022/07/25 12:03:51;;;;;;;1999.90;999.90;;;29.10;81.50;;;;;;5052602;28;20995;-66
2022/07/25 12:06:16;;;;;;;1999.90;999.90;;;28.90;81.30;;;;;;5051633;28;20409;-66
2022/07/25 12:08:42;;;;;;;1999.90;999.90;;;28.90;82.30;;;;;;5052231;28;20410;-66